Terminal Aerodrome Forecast
Issued by NWS Duluth, MN

Home | Current Version | Previous Version | Text Only | Print | Product List | Glossary On
Versions: 1 2 3 4 5 6 7 8 9 10 11 12 13 14 15 16 17 18 19 20 21
000
FTUS43 KDLH 062300 RRA
TAFDLH
TAF
KDLH 062343Z 0700/0724 27008KT P6SM SCT100
     FM070600 24008KT P6SM -SN SCT030 OVC050
      TEMPO 0707/0710 4SM -SN SCT015 OVC028
     FM071200 29012KT P6SM SCT020 BKN035
     FM071600 32014G24KT P6SM SCT035=

USA.gov is the U.S. government's official web portal to all federal, state and local government web resources and services.